createdAt,value
2023-05-06T00:00:14.868Z,95350.00
2023-05-06T00:01:14.873Z,95350.00
2023-05-06T00:02:14.895Z,95346.00
2023-05-06T00:03:14.986Z,95346.00
2023-05-06T00:04:14.860Z,95346.00
2023-05-06T00:05:14.839Z,95348.00
2023-05-06T00:06:14.820Z,95348.00
2023-05-06T00:07:14.824Z,95348.00
2023-05-06T00:08:14.793Z,95348.00
2023-05-06T00:09:14.794Z,95346.00
2023-05-06T00:10:14.810Z,95346.00
2023-05-06T00:11:14.778Z,95344.00
2023-05-06T00:12:14.811Z,95346.00
2023-05-06T00:13:14.935Z,95340.00
2023-05-06T00:14:14.755Z,95338.00
2023-05-06T00:15:14.750Z,95336.00
2023-05-06T00:16:15.594Z,95338.00
2023-05-06T00:17:14.744Z,95338.00
2023-05-06T00:18:14.745Z,95334.00
2023-05-06T00:19:14.731Z,95336.00
2023-05-06T00:20:14.720Z,95334.00
2023-05-06T00:21:14.699Z,95332.00
2023-05-06T00:22:14.699Z,95326.00
2023-05-06T00:23:14.689Z,95328.00
2023-05-06T00:24:14.698Z,95328.00
2023-05-06T00:25:14.704Z,95328.00
2023-05-06T00:26:14.744Z,95328.00
2023-05-06T00:27:14.804Z,95332.00
2023-05-06T00:28:14.882Z,95332.00
2023-05-06T00:29:14.995Z,95326.00
2023-05-06T00:30:14.956Z,95322.00
2023-05-06T00:31:15.094Z,95322.00
2023-05-06T00:32:15.040Z,95320.00
2023-05-06T00:33:15.120Z,95320.00
2023-05-06T00:34:15.153Z,95318.00
2023-05-06T00:35:15.214Z,95318.00
2023-05-06T00:36:15.292Z,95316.00
2023-05-06T00:37:15.330Z,95316.00
2023-05-06T00:38:15.440Z,95316.00
2023-05-06T00:39:15.460Z,95320.00
2023-05-06T00:40:15.535Z,95316.00
2023-05-06T00:41:15.594Z,95320.00
2023-05-06T00:42:15.669Z,95318.00
2023-05-06T00:43:15.771Z,95318.00
2023-05-06T00:44:15.807Z,95318.00
2023-05-06T00:45:15.956Z,95316.00
2023-05-06T00:46:15.987Z,95316.00
2023-05-06T00:47:15.983Z,95316.00
2023-05-06T00:48:16.166Z,95314.00
2023-05-06T00:49:16.101Z,95314.00
2023-05-06T00:50:16.154Z,95318.00
2023-05-06T00:51:16.212Z,95318.00
2023-05-06T00:52:16.264Z,95318.00
2023-05-06T00:53:16.332Z,95316.00
2023-05-06T00:54:16.380Z,95316.00
2023-05-06T00:55:16.445Z,95318.00
2023-05-06T00:56:17.231Z,95318.00
2023-05-06T00:57:16.509Z,95318.00
2023-05-06T00:58:16.495Z,95318.00
2023-05-06T00:59:16.490Z,95316.00
2023-05-06T01:00:16.497Z,95316.00
2023-05-06T01:01:16.685Z,95314.00
2023-05-06T01:02:16.567Z,95316.00
2023-05-06T01:03:16.587Z,95316.00
2023-05-06T01:04:16.494Z,95316.00
2023-05-06T01:05:16.610Z,95316.00
2023-05-06T01:06:16.484Z,95313.00
2023-05-06T01:07:16.499Z,95314.00
2023-05-06T01:08:16.521Z,95311.00
2023-05-06T01:09:16.518Z,95307.00
2023-05-06T01:10:16.487Z,95311.00
2023-05-06T01:11:16.489Z,95307.00
2023-05-06T01:12:16.476Z,95307.00
2023-05-06T01:13:16.559Z,95307.00
2023-05-06T01:14:16.488Z,95307.00
2023-05-06T01:15:16.523Z,95309.00
2023-05-06T01:16:16.490Z,95309.00
2023-05-06T01:17:16.588Z,95309.00
2023-05-06T01:18:16.463Z,95307.00
2023-05-06T01:19:16.457Z,95307.00
2023-05-06T01:20:16.508Z,95307.00
2023-05-06T01:21:16.437Z,95311.00
2023-05-06T01:22:16.451Z,95311.00
2023-05-06T01:23:16.433Z,95307.00
2023-05-06T01:24:16.434Z,95305.00
2023-05-06T01:25:16.456Z,95305.00
2023-05-06T01:26:16.477Z,95305.00
2023-05-06T01:27:16.538Z,95301.00
2023-05-06T01:28:16.628Z,95299.00
2023-05-06T01:29:16.683Z,95299.00
2023-05-06T01:30:16.784Z,95297.00
2023-05-06T01:31:16.887Z,95295.00
2023-05-06T01:32:16.897Z,95293.00
2023-05-06T01:33:17.119Z,95295.00
2023-05-06T01:34:16.999Z,95297.00
2023-05-06T01:35:17.047Z,95295.00
2023-05-06T01:36:17.143Z,95297.00
2023-05-06T01:37:17.277Z,95291.00
2023-05-06T01:38:17.266Z,95289.00
2023-05-06T01:39:17.329Z,95289.00
2023-05-06T01:40:17.398Z,95291.00
2023-05-06T01:41:17.467Z,95293.00
2023-05-06T01:42:17.567Z,95293.00
2023-05-06T01:43:17.590Z,95291.00
2023-05-06T01:44:18.335Z,95291.00
2023-05-06T01:45:17.719Z,95289.00
2023-05-06T01:46:17.793Z,95287.00
2023-05-06T01:47:17.839Z,95289.00
2023-05-06T01:48:17.861Z,95291.00
2023-05-06T01:49:17.913Z,95293.00
2023-05-06T01:50:17.969Z,95293.00
2023-05-06T01:51:18.025Z,95295.00
2023-05-06T01:52:18.116Z,95293.00
2023-05-06T01:53:18.067Z,95293.00
2023-05-06T01:54:18.096Z,95291.00
2023-05-06T01:55:18.087Z,95291.00
2023-05-06T01:56:18.127Z,95295.00
2023-05-06T01:57:18.149Z,95293.00
2023-05-06T01:58:18.162Z,95297.00
2023-05-06T01:59:18.171Z,95293.00
2023-05-06T02:00:18.205Z,95293.00
2023-05-06T02:01:18.233Z,95289.00
2023-05-06T02:02:18.206Z,95293.00
2023-05-06T02:03:18.319Z,95291.00
2023-05-06T02:04:18.244Z,95295.00
2023-05-06T02:05:18.285Z,95301.00
2023-05-06T02:06:18.273Z,95299.00
2023-05-06T02:07:18.294Z,95295.00
2023-05-06T02:08:18.348Z,95295.00
2023-05-06T02:09:18.311Z,95299.00
2023-05-06T02:10:18.327Z,95295.00
2023-05-06T02:11:18.343Z,95299.00
2023-05-06T02:12:18.373Z,95299.00
2023-05-06T02:13:18.535Z,95301.00
2023-05-06T02:14:18.411Z,95299.00
2023-05-06T02:15:18.445Z,95299.00
2023-05-06T02:16:18.579Z,95299.00
2023-05-06T02:17:18.478Z,95297.00
2023-05-06T02:18:18.574Z,95299.00
2023-05-06T02:19:18.540Z,95299.00
2023-05-06T02:20:18.568Z,95301.00
2023-05-06T02:21:18.731Z,95301.00
2023-05-06T02:22:18.625Z,95297.00
2023-05-06T02:23:18.653Z,95299.00
2023-05-06T02:24:18.688Z,95299.00
2023-05-06T02:25:18.730Z,95297.00
2023-05-06T02:26:18.756Z,95299.00
2023-05-06T02:27:18.756Z,95297.00
2023-05-06T02:28:18.804Z,95297.00
2023-05-06T02:29:18.814Z,95299.00
2023-05-06T02:30:18.868Z,95301.00
2023-05-06T02:31:18.943Z,95301.00
2023-05-06T02:32:18.906Z,95305.00
2023-05-06T02:33:18.967Z,95297.00
2023-05-06T02:34:18.962Z,95299.00
2023-05-06T02:35:18.989Z,95293.00
2023-05-06T02:36:19.023Z,95291.00
2023-05-06T02:37:19.181Z,95291.00
2023-05-06T02:38:19.298Z,95295.00
2023-05-06T02:39:19.099Z,95301.00
2023-05-06T02:40:19.163Z,95295.00
2023-05-06T02:41:19.173Z,95295.00
2023-05-06T02:42:19.230Z,95293.00
2023-05-06T02:43:19.239Z,95293.00
2023-05-06T02:44:19.290Z,95295.00
2023-05-06T02:45:19.397Z,95297.00
2023-05-06T02:46:19.452Z,95297.00
2023-05-06T02:47:19.502Z,95297.00
2023-05-06T02:48:19.533Z,95295.00
2023-05-06T02:49:19.601Z,95293.00
2023-05-06T02:50:19.683Z,95291.00
2023-05-06T02:51:19.695Z,95289.00
2023-05-06T02:52:19.752Z,95285.00
2023-05-06T02:53:19.898Z,95283.00
2023-05-06T02:54:19.889Z,95287.00
2023-05-06T02:55:20.052Z,95291.00
2023-05-06T02:56:20.061Z,95289.00
2023-05-06T02:57:20.124Z,95287.00
2023-05-06T02:58:20.171Z,95283.00
2023-05-06T02:59:20.216Z,95287.00
2023-05-06T03:00:20.264Z,95287.00
2023-05-06T03:01:20.370Z,95287.00
2023-05-06T03:02:20.384Z,95285.00
2023-05-06T03:03:20.448Z,95285.00
2023-05-06T03:04:20.545Z,95285.00
2023-05-06T03:05:20.572Z,95285.00
2023-05-06T03:06:20.611Z,95285.00
2023-05-06T03:07:20.662Z,95285.00
2023-05-06T03:08:20.682Z,95285.00
2023-05-06T03:09:20.845Z,95287.00
2023-05-06T03:10:20.811Z,95289.00
2023-05-06T03:11:20.776Z,95287.00
2023-05-06T03:12:20.811Z,95287.00
2023-05-06T03:13:20.875Z,95285.00
2023-05-06T03:14:22.028Z,95287.00
2023-05-06T03:15:20.913Z,95289.00
2023-05-06T03:16:20.915Z,95287.00
2023-05-06T03:17:20.925Z,95281.00
2023-05-06T03:18:20.947Z,95283.00
2023-05-06T03:19:20.972Z,95279.00
2023-05-06T03:20:20.989Z,95277.00
2023-05-06T03:21:21.039Z,95277.00
2023-05-06T03:22:21.049Z,95275.00
2023-05-06T03:23:21.063Z,95275.00
2023-05-06T03:24:21.092Z,95277.00
2023-05-06T03:25:21.197Z,95277.00
2023-05-06T03:26:21.127Z,95277.00
2023-05-06T03:27:21.182Z,95277.00
2023-05-06T03:28:21.248Z,95281.00
2023-05-06T03:29:21.186Z,95283.00
2023-05-06T03:30:21.225Z,95287.00
2023-05-06T03:31:21.309Z,95289.00
2023-05-06T03:32:21.220Z,95291.00
2023-05-06T03:33:21.260Z,95287.00
2023-05-06T03:34:21.276Z,95287.00
2023-05-06T03:35:21.324Z,95283.00
2023-05-06T03:36:21.333Z,95283.00
2023-05-06T03:37:21.351Z,95281.00
2023-05-06T03:38:21.400Z,95281.00
2023-05-06T03:39:21.432Z,95281.00
2023-05-06T03:40:21.502Z,95279.00
2023-05-06T03:41:21.721Z,95283.00
2023-05-06T03:42:21.565Z,95283.00
2023-05-06T03:43:21.572Z,95281.00
2023-05-06T03:44:21.595Z,95281.00
2023-05-06T03:45:21.652Z,95281.00
2023-05-06T03:46:21.707Z,95281.00
2023-05-06T03:47:21.671Z,95281.00
2023-05-06T03:48:21.722Z,95279.00
2023-05-06T03:49:21.708Z,95279.00
2023-05-06T03:50:21.829Z,95283.00
2023-05-06T03:51:22.688Z,95283.00
2023-05-06T03:52:21.806Z,95281.00
2023-05-06T03:53:21.849Z,95281.00
2023-05-06T03:54:21.852Z,95281.00
2023-05-06T03:55:21.874Z,95277.00
2023-05-06T03:56:21.911Z,95277.00
2023-05-06T03:57:21.931Z,95273.00
2023-05-06T03:58:21.938Z,95273.00
2023-05-06T03:59:21.950Z,95273.00
2023-05-06T04:00:22.000Z,95279.00
2023-05-06T04:01:21.994Z,95277.00
2023-05-06T04:02:22.091Z,95277.00
2023-05-06T04:03:22.135Z,95277.00
2023-05-06T04:04:22.058Z,95279.00
2023-05-06T04:05:22.106Z,95281.00
2023-05-06T04:06:22.083Z,95281.00
2023-05-06T04:07:22.111Z,95281.00
2023-05-06T04:08:22.154Z,95281.00
2023-05-06T04:09:22.166Z,95285.00
2023-05-06T04:10:22.187Z,95281.00
2023-05-06T04:11:22.174Z,95283.00
2023-05-06T04:12:22.215Z,95291.00
2023-05-06T04:13:22.440Z,95291.00
2023-05-06T04:14:22.296Z,95293.00
2023-05-06T04:15:22.307Z,95293.00
2023-05-06T04:16:22.367Z,95295.00
2023-05-06T04:17:22.353Z,95291.00
2023-05-06T04:18:22.387Z,95295.00
2023-05-06T04:19:22.427Z,95293.00
2023-05-06T04:20:22.476Z,95293.00
2023-05-06T04:21:22.555Z,95295.00
2023-05-06T04:22:22.560Z,95293.00
2023-05-06T04:23:22.605Z,95295.00
2023-05-06T04:24:22.649Z,95295.00
2023-05-06T04:25:23.525Z,95297.00
2023-05-06T04:26:22.723Z,95293.00
2023-05-06T04:27:22.779Z,95297.00
2023-05-06T04:28:22.851Z,95299.00
2023-05-06T04:29:23.003Z,95297.00
2023-05-06T04:30:23.000Z,95295.00
2023-05-06T04:31:23.058Z,95295.00
2023-05-06T04:32:23.075Z,95295.00
2023-05-06T04:33:23.116Z,95293.00
2023-05-06T04:34:23.533Z,95297.00
2023-05-06T04:35:23.144Z,95297.00
2023-05-06T04:36:23.163Z,95299.00
2023-05-06T04:37:23.175Z,95297.00
2023-05-06T04:38:23.236Z,95299.00
2023-05-06T04:39:23.314Z,95305.00
2023-05-06T04:40:23.393Z,95299.00
2023-05-06T04:41:23.444Z,95299.00
2023-05-06T04:42:23.483Z,95301.00
2023-05-06T04:43:23.481Z,95301.00
2023-05-06T04:44:23.530Z,95303.00
2023-05-06T04:45:23.687Z,95303.00
2023-05-06T04:46:23.674Z,95301.00
2023-05-06T04:47:23.733Z,95303.00
2023-05-06T04:48:23.750Z,95303.00
2023-05-06T04:49:23.818Z,95307.00
2023-05-06T04:50:23.862Z,95307.00
2023-05-06T04:51:23.976Z,95309.00
2023-05-06T04:52:24.068Z,95309.00
2023-05-06T04:53:24.074Z,95307.00
2023-05-06T04:54:24.149Z,95311.00
2023-05-06T04:55:24.211Z,95314.00
2023-05-06T04:56:24.273Z,95316.00
2023-05-06T04:57:24.339Z,95314.00
2023-05-06T04:58:24.402Z,95316.00
2023-05-06T04:59:24.474Z,95320.00
2023-05-06T05:00:24.548Z,95320.00
2023-05-06T05:01:24.749Z,95324.00
2023-05-06T05:02:24.778Z,95320.00
2023-05-06T05:03:24.834Z,95322.00
2023-05-06T05:04:24.779Z,95322.00
2023-05-06T05:05:24.837Z,95322.00
2023-05-06T05:06:24.897Z,95324.00
2023-05-06T05:07:24.964Z,95324.00
2023-05-06T05:08:25.022Z,95326.00
2023-05-06T05:09:25.084Z,95322.00
2023-05-06T05:10:25.158Z,95322.00
2023-05-06T05:11:25.220Z,95320.00
2023-05-06T05:12:25.267Z,95322.00
2023-05-06T05:13:25.293Z,95320.00
2023-05-06T05:14:25.315Z,95320.00
2023-05-06T05:15:25.363Z,95318.00
2023-05-06T05:16:25.470Z,95318.00
2023-05-06T05:17:25.623Z,95318.00
2023-05-06T05:18:25.585Z,95318.00
2023-05-06T05:19:25.628Z,95318.00
2023-05-06T05:20:25.683Z,95318.00
2023-05-06T05:21:25.772Z,95318.00
2023-05-06T05:22:25.795Z,95320.00
2023-05-06T05:23:25.853Z,95318.00
2023-05-06T05:24:25.901Z,95320.00
2023-05-06T05:25:25.938Z,95320.00
2023-05-06T05:26:26.004Z,95318.00
2023-05-06T05:27:26.060Z,95320.00
2023-05-06T05:28:26.105Z,95324.00
2023-05-06T05:29:26.455Z,95324.00
2023-05-06T05:30:26.215Z,95322.00
2023-05-06T05:31:26.348Z,95322.00
2023-05-06T05:32:26.361Z,95318.00
2023-05-06T05:33:26.483Z,95316.00
2023-05-06T05:34:26.412Z,95316.00
2023-05-06T05:35:26.467Z,95316.00
2023-05-06T05:36:26.522Z,95316.00
2023-05-06T05:37:26.567Z,95314.00
2023-05-06T05:38:26.621Z,95314.00
2023-05-06T05:39:26.676Z,95318.00
2023-05-06T05:40:26.730Z,95318.00
2023-05-06T05:41:26.829Z,95318.00
2023-05-06T05:42:26.819Z,95316.00
2023-05-06T05:43:26.861Z,95318.00
2023-05-06T05:44:26.896Z,95320.00
2023-05-06T05:45:26.963Z,95318.00
2023-05-06T05:46:27.022Z,95322.00
2023-05-06T05:47:27.119Z,95320.00
2023-05-06T05:48:27.103Z,95326.00
2023-05-06T05:49:27.302Z,95324.00
2023-05-06T05:50:27.206Z,95326.00
2023-05-06T05:51:27.236Z,95326.00
2023-05-06T05:52:27.293Z,95326.00
2023-05-06T05:53:27.341Z,95324.00
2023-05-06T05:54:27.391Z,95326.00
2023-05-06T05:55:27.495Z,95326.00
2023-05-06T05:56:27.497Z,95326.00
2023-05-06T05:57:27.561Z,95328.00
2023-05-06T05:58:27.601Z,95330.00
2023-05-06T05:59:27.654Z,95328.00
2023-05-06T06:00:27.691Z,95328.00
2023-05-06T06:01:27.767Z,95324.00
2023-05-06T06:02:27.925Z,95328.00
2023-05-06T06:03:27.948Z,95328.00
2023-05-06T06:04:27.957Z,95324.00
2023-05-06T06:05:28.052Z,95322.00
2023-05-06T06:06:28.000Z,95326.00
2023-05-06T06:07:28.062Z,95324.00
2023-05-06T06:08:28.125Z,95320.00
2023-05-06T06:09:28.148Z,95324.00
2023-05-06T06:10:28.202Z,95324.00
2023-05-06T06:11:28.245Z,95328.00
2023-05-06T06:12:28.324Z,95326.00
2023-05-06T06:13:29.116Z,95328.00
2023-05-06T06:14:28.409Z,95328.00
2023-05-06T06:15:28.458Z,95328.00
2023-05-06T06:16:28.576Z,95326.00
2023-05-06T06:17:28.665Z,95324.00
2023-05-06T06:18:28.638Z,95324.00
2023-05-06T06:19:28.680Z,95324.00
2023-05-06T06:20:28.830Z,95326.00
2023-05-06T06:21:28.824Z,95324.00
2023-05-06T06:22:28.859Z,95324.00
2023-05-06T06:23:28.906Z,95322.00
2023-05-06T06:24:28.956Z,95322.00
2023-05-06T06:25:29.274Z,95324.00
2023-05-06T06:26:29.085Z,95322.00
2023-05-06T06:27:29.169Z,95322.00
2023-05-06T06:28:29.213Z,95324.00
2023-05-06T06:29:29.260Z,95318.00
2023-05-06T06:30:29.318Z,95318.00
2023-05-06T06:31:29.468Z,95314.00
2023-05-06T06:32:29.443Z,95318.00
2023-05-06T06:33:29.450Z,95318.00
2023-05-06T06:34:29.499Z,95316.00
2023-05-06T06:35:29.547Z,95313.00
2023-05-06T06:36:29.578Z,95311.00
2023-05-06T06:37:29.657Z,95309.00
2023-05-06T06:38:29.681Z,95307.00
2023-05-06T06:39:29.778Z,95309.00
2023-05-06T06:40:29.787Z,95311.00
2023-05-06T06:41:29.824Z,95311.00
2023-05-06T06:42:29.871Z,95311.00
2023-05-06T06:43:29.928Z,95311.00
2023-05-06T06:44:29.962Z,95311.00
2023-05-06T06:45:30.106Z,95313.00
2023-05-06T06:46:30.066Z,95309.00
2023-05-06T06:47:30.099Z,95309.00
2023-05-06T06:48:30.125Z,95311.00
2023-05-06T06:49:30.158Z,95311.00
2023-05-06T06:50:30.181Z,95311.00
2023-05-06T06:51:30.221Z,95311.00
2023-05-06T06:52:30.237Z,95311.00
2023-05-06T06:53:30.476Z,95307.00
2023-05-06T06:54:30.368Z,95305.00
2023-05-06T06:55:30.356Z,95305.00
2023-05-06T06:56:30.366Z,95301.00
2023-05-06T06:57:30.401Z,95299.00
2023-05-06T06:58:30.427Z,95303.00
2023-05-06T06:59:30.451Z,95301.00
2023-05-06T07:00:30.489Z,95301.00
2023-05-06T07:01:30.585Z,95301.00
2023-05-06T07:02:30.572Z,95299.00
2023-05-06T07:03:30.576Z,95297.00
2023-05-06T07:04:30.627Z,95295.00
2023-05-06T07:05:30.552Z,95299.00
2023-05-06T07:06:30.596Z,95297.00
2023-05-06T07:07:30.646Z,95299.00
2023-05-06T07:08:30.708Z,95299.00
2023-05-06T07:09:30.839Z,95301.00
2023-05-06T07:10:30.796Z,95301.00
2023-05-06T07:11:30.826Z,95301.00
2023-05-06T07:12:30.907Z,95301.00
2023-05-06T07:13:30.898Z,95301.00
2023-05-06T07:14:30.920Z,95307.00
2023-05-06T07:15:30.951Z,95305.00
2023-05-06T07:16:31.005Z,95309.00
2023-05-06T07:17:31.007Z,95309.00
2023-05-06T07:18:31.050Z,95307.00
2023-05-06T07:19:31.083Z,95309.00
2023-05-06T07:20:31.119Z,95305.00
2023-05-06T07:21:31.118Z,95307.00
2023-05-06T07:22:31.112Z,95309.00
2023-05-06T07:23:32.048Z,95309.00
2023-05-06T07:24:31.218Z,95309.00
2023-05-06T07:25:31.387Z,95311.00
2023-05-06T07:26:31.253Z,95309.00
2023-05-06T07:27:31.254Z,95309.00
2023-05-06T07:28:31.262Z,95309.00
2023-05-06T07:29:31.280Z,95307.00
2023-05-06T07:30:31.283Z,95311.00
2023-05-06T07:31:31.364Z,95311.00
2023-05-06T07:32:31.312Z,95309.00
2023-05-06T07:33:31.285Z,95311.00
2023-05-06T07:34:31.283Z,95311.00
2023-05-06T07:35:31.272Z,95313.00
2023-05-06T07:36:31.270Z,95313.00
2023-05-06T07:37:31.265Z,95311.00
2023-05-06T07:38:31.261Z,95311.00
2023-05-06T07:39:31.293Z,95305.00
2023-05-06T07:40:31.259Z,95307.00
2023-05-06T07:41:31.345Z,95309.00
2023-05-06T07:42:31.249Z,95309.00
2023-05-06T07:43:31.264Z,95309.00
2023-05-06T07:44:31.277Z,95309.00
2023-05-06T07:45:31.266Z,95313.00
2023-05-06T07:46:31.357Z,95313.00
2023-05-06T07:47:31.491Z,95311.00
2023-05-06T07:48:31.336Z,95314.00
2023-05-06T07:49:31.251Z,95313.00
2023-05-06T07:50:31.259Z,95313.00
2023-05-06T07:51:31.253Z,95313.00
2023-05-06T07:52:31.243Z,95316.00
2023-05-06T07:53:31.216Z,95313.00
2023-05-06T07:54:31.196Z,95314.00
2023-05-06T07:55:32.696Z,95314.00
2023-05-06T07:56:31.116Z,95314.00
2023-05-06T07:57:31.218Z,95314.00
2023-05-06T07:58:31.073Z,95307.00
2023-05-06T07:59:31.038Z,95307.00
2023-05-06T08:00:30.986Z,95309.00
2023-05-06T08:01:30.936Z,95305.00
2023-05-06T08:02:30.933Z,95307.00
2023-05-06T08:03:31.048Z,95307.00
2023-05-06T08:04:30.856Z,95307.00
2023-05-06T08:05:30.773Z,95307.00
2023-05-06T08:06:30.731Z,95307.00
2023-05-06T08:07:30.692Z,95305.00
2023-05-06T08:08:30.641Z,95305.00
2023-05-06T08:09:30.599Z,95303.00
2023-05-06T08:10:30.559Z,95307.00
2023-05-06T08:11:30.523Z,95305.00
2023-05-06T08:12:30.471Z,95309.00
2023-05-06T08:13:30.549Z,95307.00
2023-05-06T08:14:30.384Z,95305.00
2023-05-06T08:15:30.376Z,95305.00
2023-05-06T08:16:31.658Z,95307.00
2023-05-06T08:17:30.340Z,95305.00
2023-05-06T08:18:30.346Z,95305.00
2023-05-06T08:19:30.201Z,95301.00
2023-05-06T08:20:30.164Z,95305.00
2023-05-06T08:21:30.135Z,95303.00
2023-05-06T08:22:30.150Z,95305.00
2023-05-06T08:23:30.125Z,95307.00
2023-05-06T08:24:30.097Z,95307.00
2023-05-06T08:25:30.087Z,95303.00
2023-05-06T08:26:30.051Z,95305.00
2023-05-06T08:27:30.055Z,95305.00
2023-05-06T08:28:30.047Z,95303.00
2023-05-06T08:29:30.059Z,95301.00
2023-05-06T08:30:30.058Z,95301.00
2023-05-06T08:31:30.035Z,95299.00
2023-05-06T08:32:30.054Z,95301.00
2023-05-06T08:33:30.037Z,95299.00
2023-05-06T08:34:30.012Z,95297.00
2023-05-06T08:35:30.028Z,95299.00
2023-05-06T08:36:30.042Z,95299.00
2023-05-06T08:37:30.039Z,95299.00
2023-05-06T08:38:30.077Z,95299.00
2023-05-06T08:39:30.084Z,95301.00
2023-05-06T08:40:30.096Z,95301.00
2023-05-06T08:41:30.103Z,95299.00
2023-05-06T08:42:31.127Z,95301.00
2023-05-06T08:43:30.135Z,95299.00
2023-05-06T08:44:30.123Z,95297.00
2023-05-06T08:45:30.176Z,95297.00
2023-05-06T08:46:30.115Z,95297.00
2023-05-06T08:47:30.182Z,95297.00
2023-05-06T08:48:30.169Z,95293.00
2023-05-06T08:49:30.197Z,95295.00
2023-05-06T08:50:30.200Z,95291.00
2023-05-06T08:51:30.228Z,95291.00
2023-05-06T08:52:30.257Z,95291.00
2023-05-06T08:53:30.262Z,95291.00
2023-05-06T08:54:30.253Z,95291.00
2023-05-06T08:55:30.259Z,95289.00
2023-05-06T08:56:30.279Z,95289.00
2023-05-06T08:57:30.229Z,95287.00
2023-05-06T08:58:30.223Z,95287.00
2023-05-06T08:59:30.253Z,95283.00
2023-05-06T09:00:30.208Z,95281.00
2023-05-06T09:01:30.313Z,95281.00
2023-05-06T09:02:30.343Z,95281.00
2023-05-06T09:03:30.382Z,95283.00
2023-05-06T09:04:30.236Z,95285.00
2023-05-06T09:05:30.245Z,95283.00
2023-05-06T09:06:30.280Z,95287.00
2023-05-06T09:07:30.317Z,95287.00
2023-05-06T09:08:30.322Z,95289.00
2023-05-06T09:09:30.292Z,95283.00
2023-05-06T09:10:30.255Z,95287.00
2023-05-06T09:11:30.288Z,95279.00
2023-05-06T09:12:30.285Z,95281.00
2023-05-06T09:13:30.302Z,95279.00
2023-05-06T09:14:30.264Z,95279.00
2023-05-06T09:15:30.244Z,95281.00
2023-05-06T09:16:30.238Z,95281.00
2023-05-06T09:17:30.289Z,95285.00
2023-05-06T09:18:30.143Z,95281.00
2023-05-06T09:19:30.216Z,95283.00
2023-05-06T09:20:30.164Z,95281.00
2023-05-06T09:21:30.171Z,95277.00
2023-05-06T09:22:30.169Z,95281.00
2023-05-06T09:23:30.163Z,95281.00
2023-05-06T09:24:30.150Z,95283.00
2023-05-06T09:25:30.136Z,95283.00
2023-05-06T09:26:30.145Z,95285.00
2023-05-06T09:27:30.091Z,95285.00
2023-05-06T09:28:30.073Z,95283.00
2023-05-06T09:29:30.037Z,95283.00
2023-05-06T09:30:29.999Z,95289.00
2023-05-06T09:31:30.074Z,95289.00
2023-05-06T09:32:29.997Z,95287.00
2023-05-06T09:33:29.931Z,95287.00
2023-05-06T09:34:29.895Z,95289.00
2023-05-06T09:35:29.876Z,95291.00
2023-05-06T09:36:29.864Z,95287.00
2023-05-06T09:37:29.833Z,95289.00
2023-05-06T09:38:29.808Z,95291.00
2023-05-06T09:39:29.782Z,95293.00
2023-05-06T09:40:29.758Z,95291.00
2023-05-06T09:41:29.747Z,95293.00
2023-05-06T09:42:29.711Z,95293.00
2023-05-06T09:43:29.683Z,95295.00
2023-05-06T09:44:29.674Z,95295.00
2023-05-06T09:45:29.635Z,95297.00
2023-05-06T09:46:29.652Z,95295.00
2023-05-06T09:47:29.615Z,95297.00
2023-05-06T09:48:29.556Z,95295.00
2023-05-06T09:49:29.545Z,95295.00
2023-05-06T09:50:29.497Z,95297.00
2023-05-06T09:51:29.479Z,95297.00
2023-05-06T09:52:29.478Z,95295.00
2023-05-06T09:53:29.433Z,95295.00
2023-05-06T09:54:29.429Z,95295.00
2023-05-06T09:55:29.461Z,95299.00
2023-05-06T09:56:29.435Z,95297.00
2023-05-06T09:57:29.440Z,95299.00
2023-05-06T09:58:29.432Z,95297.00
2023-05-06T09:59:29.448Z,95295.00
2023-05-06T10:00:29.482Z,95295.00
2023-05-06T10:01:36.690Z,95293.00
2023-05-06T10:02:29.671Z,95293.00
2023-05-06T10:03:29.515Z,95289.00
2023-05-06T10:04:29.489Z,95285.00
2023-05-06T10:05:29.432Z,95287.00
2023-05-06T10:06:29.141Z,95285.00
2023-05-06T10:07:29.101Z,95281.00
2023-05-06T10:08:29.034Z,95281.00
2023-05-06T10:09:28.958Z,95281.00
2023-05-06T10:10:28.922Z,95285.00
2023-05-06T10:11:28.838Z,95285.00
2023-05-06T10:12:28.822Z,95283.00
2023-05-06T10:13:28.711Z,95283.00
2023-05-06T10:14:28.650Z,95283.00
2023-05-06T10:15:28.592Z,95283.00
2023-05-06T10:16:28.623Z,95281.00
2023-05-06T10:17:28.516Z,95279.00
2023-05-06T10:18:28.863Z,95277.00
2023-05-06T10:19:28.347Z,95279.00
2023-05-06T10:20:28.309Z,95271.00
2023-05-06T10:21:28.252Z,95273.00
2023-05-06T10:22:28.158Z,95275.00
2023-05-06T10:23:28.098Z,95275.00
2023-05-06T10:24:28.035Z,95271.00
2023-05-06T10:25:27.955Z,95275.00
2023-05-06T10:26:28.295Z,95271.00
2023-05-06T10:27:27.906Z,95269.00
2023-05-06T10:28:31.429Z,95264.00
2023-05-06T10:29:27.860Z,95262.00
2023-05-06T10:30:27.758Z,95266.00
2023-05-06T10:31:27.738Z,95262.00
2023-05-06T10:32:27.658Z,95266.00
2023-05-06T10:33:27.638Z,95266.00
2023-05-06T10:34:27.527Z,95266.00
2023-05-06T10:35:27.482Z,95262.00
2023-05-06T10:36:27.407Z,95260.00
2023-05-06T10:37:27.439Z,95258.00
2023-05-06T10:38:27.267Z,95260.00
2023-05-06T10:39:27.200Z,95258.00
2023-05-06T10:40:27.121Z,95258.00
2023-05-06T10:41:27.054Z,95256.00
2023-05-06T10:42:26.989Z,95256.00
2023-05-06T10:43:26.945Z,95252.00
2023-05-06T10:44:26.883Z,95254.00
2023-05-06T10:45:26.802Z,95252.00
2023-05-06T10:46:26.800Z,95252.00
2023-05-06T10:47:26.865Z,95254.00
2023-05-06T10:48:26.782Z,95250.00
2023-05-06T10:49:26.791Z,95250.00
2023-05-06T10:50:26.798Z,95248.00
2023-05-06T10:51:26.675Z,95252.00
2023-05-06T10:52:26.668Z,95252.00
2023-05-06T10:53:26.776Z,95248.00
2023-05-06T10:54:26.645Z,95250.00
2023-05-06T10:55:26.678Z,95250.00
2023-05-06T10:56:26.602Z,95252.00
2023-05-06T10:57:26.724Z,95250.00
2023-05-06T10:58:26.543Z,95248.00
2023-05-06T10:59:26.590Z,95246.00
2023-05-06T11:00:26.600Z,95244.00
2023-05-06T11:01:26.678Z,95240.00
2023-05-06T11:02:26.632Z,95244.00
2023-05-06T11:03:26.672Z,95244.00
2023-05-06T11:04:26.506Z,95242.00
2023-05-06T11:05:26.433Z,95244.00
2023-05-06T11:06:26.363Z,95246.00
2023-05-06T11:07:26.293Z,95244.00
2023-05-06T11:08:26.272Z,95240.00
2023-05-06T11:09:26.369Z,95240.00
2023-05-06T11:10:26.200Z,95238.00
2023-05-06T11:11:27.642Z,95238.00
2023-05-06T11:12:26.156Z,95240.00
2023-05-06T11:13:26.374Z,95236.00
2023-05-06T11:14:26.123Z,95236.00
2023-05-06T11:15:26.114Z,95236.00
2023-05-06T11:16:26.190Z,95238.00
2023-05-06T11:17:26.153Z,95240.00
2023-05-06T11:18:26.148Z,95240.00
2023-05-06T11:19:26.198Z,95240.00
2023-05-06T11:20:26.198Z,95240.00
2023-05-06T11:21:26.167Z,95240.00
2023-05-06T11:22:26.163Z,95238.00
2023-05-06T11:23:26.171Z,95234.00
2023-05-06T11:24:26.226Z,95234.00
2023-05-06T11:25:26.271Z,95236.00
2023-05-06T11:26:26.169Z,95234.00
2023-05-06T11:27:26.201Z,95232.00
2023-05-06T11:28:26.215Z,95230.00
2023-05-06T11:29:26.289Z,95232.00
2023-05-06T11:30:26.279Z,95222.00
2023-05-06T11:31:26.322Z,95224.00
2023-05-06T11:32:26.369Z,95222.00
2023-05-06T11:33:26.349Z,95226.00
2023-05-06T11:34:26.352Z,95228.00
2023-05-06T11:35:26.333Z,95228.00
2023-05-06T11:36:26.336Z,95232.00
2023-05-06T11:37:26.398Z,95230.00
2023-05-06T11:38:26.396Z,95228.00
2023-05-06T11:39:26.436Z,95230.00
2023-05-06T11:40:26.421Z,95232.00
2023-05-06T11:41:26.661Z,95230.00
2023-05-06T11:42:26.465Z,95228.00
2023-05-06T11:43:26.441Z,95226.00
2023-05-06T11:44:26.465Z,95224.00